Lockbourne, Ohio
Current Conditions -  °F | °C
As of 8:35 PM on Monday 20 Oct 2014 (Local Time) from KLCK Reporting Station
Thunderstorm Thunderstorm  
Wind Chill: 11°   Ceiling: 4400
Heat Index: 11°   Visibility: 10mi
Dew Point: 10°   Wind: 3mph
Humidity: 93%   Direction: 190°S
Pressure: 29.87"   Gusts: NA
Location:  39.81°N, 82.97°W
Report Text: KLCK 210035Z AUTO 19003KT 10SM VCTS SCT035 BKN044 OVC050 11/10 A2987 RMK AO2 LTG DSNT E T01070096
Loading
Personal Weather Stations






























Interactive Weather Map
Tropical Storm Tracking
New forecast layout! Learn more

10-Day Weather Forecast

Advertisements
Track Severe Weather on mobile